Kitakyushu Airport Kitakyushu JP
ICAO: RJFR
IATA: KKJ
Category: Medium
Scheduled Services: Yes

Elevation: 21 ft
TransAlt. 0 ft.

Airport Communications:
RDO:118.85

RJFR Zoom In..

If you have problems with the map follow the link
https://www.worldairports.se/pages/airport.php?
ICAO=RJFR

Runways:

(A) RW 18 length 8202 ft width 197 ft
ILS 109.15 / hdg 177

(B) RW 36 length 8202 ft width 197 ft
---- / hdg 357

Location; RJFR
Day. 13 / Time. 20.00 Zulu
* QNH: 1027
* Temperature: 07° c. 44.6°f.
* Wind from: 360° Speed 12 kn.
Dewpoint: -01° c.
Visibility: 10 km or more.
Clouds: Few 3000 ft.
Clouds: Broken 4000 ft.
Clouds: Broken 5000 ft.

RJFR 132000Z 36012KT 9999 FEW030 BKN040 BKN050 07/M01 Q1027


Wind From 360°
Speed 12 kn.

 
 
jpsmedia.com for Web Design worldairports.se 2018   terms of use